createdAt,value
2019-06-20T00:01:48.107Z,22.38
2019-06-20T00:04:18.814Z,22.28
2019-06-20T00:06:49.841Z,22.34
2019-06-20T00:09:20.887Z,22.31
2019-06-20T00:11:51.533Z,22.41
2019-06-20T00:14:22.516Z,22.36
2019-06-20T00:16:53.485Z,22.31
2019-06-20T00:19:24.177Z,22.26
2019-06-20T00:21:55.130Z,22.27
2019-06-20T00:24:26.091Z,22.24
2019-06-20T00:26:56.803Z,22.26
2019-06-20T00:29:27.527Z,22.19
2019-06-20T00:31:59.543Z,22.13
2019-06-20T00:34:30.314Z,22.08
2019-06-20T00:37:02.646Z,22.06
2019-06-20T00:39:33.782Z,21.88
2019-06-20T00:42:04.484Z,21.85
2019-06-20T00:44:35.557Z,21.94
2019-06-20T00:47:06.338Z,21.96
2019-06-20T00:49:38.348Z,21.81
2019-06-20T00:52:09.376Z,21.85
2019-06-20T00:54:40.327Z,21.79
2019-06-20T00:57:11.053Z,21.56
2019-06-20T00:59:42.007Z,21.48
2019-06-20T01:02:12.676Z,21.31
2019-06-20T01:04:43.362Z,21.37
2019-06-20T01:07:14.246Z,21.42
2019-06-20T01:09:44.926Z,21.34
2019-06-20T01:12:15.872Z,21.33
2019-06-20T01:14:46.587Z,21.26
2019-06-20T01:17:17.550Z,21.32
2019-06-20T01:19:48.740Z,21.26
2019-06-20T01:22:19.747Z,21.15
2019-06-20T01:24:50.715Z,21.21
2019-06-20T01:27:21.625Z,21.17
2019-06-20T01:29:52.318Z,21.17
2019-06-20T01:32:23.367Z,21.14
2019-06-20T01:34:54.046Z,21.16
2019-06-20T01:37:24.733Z,21.11
2019-06-20T01:39:55.743Z,21.03
2019-06-20T01:42:26.594Z,21.15
2019-06-20T01:44:57.259Z,21.12
2019-06-20T01:47:27.935Z,21.05
2019-06-20T01:49:58.947Z,21.00
2019-06-20T01:52:29.996Z,20.90
2019-06-20T01:55:00.687Z,20.93
2019-06-20T01:57:31.758Z,21.08
2019-06-20T02:00:02.507Z,21.12
2019-06-20T02:02:33.878Z,20.89
2019-06-20T02:05:09.624Z,20.79
2019-06-20T02:07:40.665Z,20.79
2019-06-20T02:10:11.761Z,20.72
2019-06-20T02:12:43.032Z,20.69
2019-06-20T02:15:13.776Z,20.70
2019-06-20T02:17:44.512Z,20.74
2019-06-20T02:20:55.619Z,20.75
2019-06-20T02:23:27.377Z,20.61
2019-06-20T02:25:58.329Z,20.52
2019-06-20T02:28:29.253Z,20.42
2019-06-20T02:30:59.917Z,20.55
2019-06-20T02:33:30.888Z,20.62
2019-06-20T02:36:01.582Z,20.66
2019-06-20T02:38:32.562Z,20.62
2019-06-20T02:41:03.542Z,20.56
2019-06-20T02:43:34.214Z,20.63
2019-06-20T02:46:05.894Z,20.61
2019-06-20T02:48:37.024Z,20.59
2019-06-20T02:51:07.779Z,20.60
2019-06-20T02:53:39.285Z,20.53
2019-06-20T02:56:09.968Z,20.51
2019-06-20T02:58:40.896Z,20.45
2019-06-20T03:01:11.573Z,20.50
2019-06-20T03:03:42.568Z,20.51
2019-06-20T03:06:13.628Z,20.50
2019-06-20T03:08:44.312Z,20.50
2019-06-20T03:11:15.006Z,20.47
2019-06-20T03:13:46.103Z,20.49
2019-06-20T03:16:17.153Z,20.53
2019-06-20T03:18:48.221Z,20.51
2019-06-20T03:21:19.220Z,20.49
2019-06-20T03:23:50.189Z,20.48
2019-06-20T03:26:21.145Z,20.60
2019-06-20T03:28:52.165Z,20.60
2019-06-20T03:31:23.212Z,20.61
2019-06-20T03:33:53.865Z,20.62
2019-06-20T03:36:24.588Z,20.46
2019-06-20T03:38:55.256Z,20.44
2019-06-20T03:41:26.341Z,20.37
2019-06-20T03:43:59.101Z,20.29
2019-06-20T03:46:29.665Z,20.42
2019-06-20T03:49:00.708Z,20.23
2019-06-20T03:51:31.757Z,20.44
2019-06-20T03:54:02.698Z,20.53
2019-06-20T03:56:33.620Z,20.55
2019-06-20T03:59:04.440Z,20.65
2019-06-20T04:01:35.359Z,20.68
2019-06-20T04:04:06.061Z,20.78
2019-06-20T04:06:36.777Z,20.83
2019-06-20T04:09:08.178Z,20.87
2019-06-20T04:11:39.124Z,21.05
2019-06-20T04:14:10.082Z,21.05
2019-06-20T04:16:40.760Z,21.32
2019-06-20T04:19:11.714Z,21.29
2019-06-20T04:21:42.829Z,21.65
2019-06-20T04:24:13.650Z,22.18
2019-06-20T04:26:44.338Z,22.79
2019-06-20T04:29:15.349Z,23.21
2019-06-20T04:31:46.067Z,23.88
2019-06-20T04:34:17.116Z,24.28
2019-06-20T04:36:48.249Z,24.47
2019-06-20T04:39:19.803Z,25.76
2019-06-20T04:41:50.555Z,27.54
2019-06-20T04:44:21.499Z,28.30
2019-06-20T04:46:56.712Z,26.30
2019-06-20T04:49:27.446Z,25.93
2019-06-20T04:51:58.553Z,23.93
2019-06-20T04:54:29.223Z,23.65
2019-06-20T04:57:02.261Z,23.12
2019-06-20T04:59:33.481Z,23.46
2019-06-20T05:02:04.478Z,23.18
2019-06-20T05:04:35.137Z,22.59
2019-06-20T05:07:16.266Z,22.39
2019-06-20T05:09:46.938Z,22.51
2019-06-20T05:12:18.221Z,21.66
2019-06-20T05:14:49.184Z,21.55
2019-06-20T05:17:20.369Z,21.41
2019-06-20T05:19:51.029Z,21.44
2019-06-20T05:22:22.042Z,21.50
2019-06-20T05:24:52.721Z,21.69
2019-06-20T05:27:23.796Z,21.74
2019-06-20T05:29:54.488Z,21.60
2019-06-20T05:32:25.457Z,21.55
2019-06-20T05:34:57.440Z,21.62
2019-06-20T05:37:28.420Z,21.83
2019-06-20T05:39:59.516Z,21.83
2019-06-20T05:42:30.186Z,21.84
2019-06-20T05:45:01.194Z,21.88
2019-06-20T05:47:32.219Z,21.96
2019-06-20T05:50:03.362Z,21.99
2019-06-20T05:52:35.058Z,22.20
2019-06-20T05:55:08.903Z,22.15
2019-06-20T05:57:40.280Z,22.03
2019-06-20T06:00:12.503Z,21.78
2019-06-20T06:02:43.465Z,21.93
2019-06-20T06:05:15.732Z,22.41
2019-06-20T06:07:46.886Z,23.08
2019-06-20T06:10:19.481Z,23.83
2019-06-20T06:12:50.159Z,24.21
2019-06-20T06:15:21.430Z,24.23
2019-06-20T06:17:52.373Z,23.48
2019-06-20T06:20:23.674Z,23.53
2019-06-20T06:22:54.359Z,22.91
2019-06-20T06:25:25.108Z,22.25
2019-06-20T06:27:56.063Z,22.19
2019-06-20T06:30:27.633Z,21.92
2019-06-20T06:32:58.647Z,21.69
2019-06-20T06:35:29.818Z,21.55
2019-06-20T06:38:00.755Z,21.78
2019-06-20T06:40:31.594Z,22.08
2019-06-20T06:43:02.556Z,21.69
2019-06-20T06:45:33.305Z,21.86
2019-06-20T06:48:04.279Z,21.91
2019-06-20T06:50:35.281Z,21.82
2019-06-20T06:53:06.011Z,21.62
2019-06-20T06:55:36.951Z,21.40
2019-06-20T06:58:07.688Z,21.55
2019-06-20T07:00:38.652Z,21.47
2019-06-20T07:03:09.694Z,21.53
2019-06-20T07:05:40.614Z,21.58
2019-06-20T07:08:11.705Z,21.72
2019-06-20T07:10:45.187Z,21.90
2019-06-20T07:13:15.892Z,22.01
2019-06-20T07:15:46.849Z,22.11
2019-06-20T07:18:17.799Z,22.14
2019-06-20T07:20:48.857Z,22.48
2019-06-20T07:23:19.701Z,22.98
2019-06-20T07:25:51.206Z,23.23
2019-06-20T07:28:22.173Z,23.31
2019-06-20T07:30:53.077Z,23.36
2019-06-20T07:33:24.027Z,23.57
2019-06-20T07:35:55.401Z,23.93
2019-06-20T07:38:26.108Z,24.06
2019-06-20T07:40:56.798Z,24.32
2019-06-20T07:43:27.476Z,24.19
2019-06-20T07:46:02.485Z,24.39
2019-06-20T07:48:30.830Z,24.58
2019-06-20T07:51:01.494Z,24.31
2019-06-20T07:53:32.606Z,24.56
2019-06-20T07:56:03.732Z,24.46
2019-06-20T07:58:35.422Z,24.74
2019-06-20T08:01:06.793Z,24.69
2019-06-20T08:03:37.624Z,24.82
2019-06-20T08:06:08.305Z,24.09
2019-06-20T08:08:39.373Z,24.19
2019-06-20T08:11:10.311Z,24.24
2019-06-20T08:13:41.246Z,23.92
2019-06-20T08:16:11.997Z,24.48
2019-06-20T08:18:42.752Z,24.35
2019-06-20T08:21:15.444Z,23.80
2019-06-20T08:23:46.254Z,23.67
2019-06-20T08:26:17.736Z,24.04
2019-06-20T08:28:48.441Z,24.26
2019-06-20T08:31:19.559Z,24.47
2019-06-20T08:33:50.215Z,24.38
2019-06-20T08:36:21.388Z,24.40
2019-06-20T08:38:52.382Z,24.32
2019-06-20T08:41:23.346Z,24.94
2019-06-20T08:43:55.342Z,26.04
2019-06-20T08:46:26.981Z,27.22
2019-06-20T08:48:58.235Z,28.12
2019-06-20T08:51:30.086Z,28.52
2019-06-20T08:54:01.220Z,27.81
2019-06-20T08:56:33.843Z,26.12
2019-06-20T08:59:04.958Z,26.94
2019-06-20T09:01:35.952Z,27.08
2019-06-20T09:04:06.703Z,26.93
2019-06-20T09:06:37.664Z,25.99
2019-06-20T09:09:09.063Z,25.53
2019-06-20T09:11:39.791Z,24.39
2019-06-20T09:14:10.620Z,23.81
2019-06-20T09:16:41.547Z,23.87
2019-06-20T09:19:13.017Z,23.59
2019-06-20T09:21:44.285Z,23.82
2019-06-20T09:24:15.272Z,23.84
2019-06-20T09:26:45.977Z,24.19
2019-06-20T09:29:16.983Z,24.55
2019-06-20T09:31:48.003Z,24.35
2019-06-20T09:34:19.030Z,23.69
2019-06-20T09:36:52.021Z,23.97
2019-06-20T09:39:22.580Z,24.27
2019-06-20T09:41:54.400Z,24.34
2019-06-20T09:44:25.290Z,24.31
2019-06-20T09:46:56.455Z,24.65
2019-06-20T09:49:28.911Z,24.56
2019-06-20T09:52:00.066Z,24.79
2019-06-20T09:54:30.925Z,24.85
2019-06-20T09:57:01.916Z,25.11
2019-06-20T09:59:32.976Z,25.48
2019-06-20T10:02:03.912Z,26.76
2019-06-20T10:04:34.635Z,27.72
2019-06-20T10:07:05.737Z,27.53
2019-06-20T10:09:36.490Z,27.24
2019-06-20T10:12:07.627Z,28.41
2019-06-20T10:14:38.607Z,28.64
2019-06-20T10:17:09.533Z,29.38
2019-06-20T10:19:40.478Z,28.89
2019-06-20T10:22:11.422Z,29.30
2019-06-20T10:24:42.385Z,30.58
2019-06-20T10:27:13.468Z,30.83
2019-06-20T10:29:44.474Z,30.83
2019-06-20T10:32:17.065Z,29.83
2019-06-20T10:34:48.388Z,29.05
2019-06-20T10:37:19.506Z,29.90
2019-06-20T10:39:50.256Z,31.18
2019-06-20T10:42:22.127Z,31.58
2019-06-20T10:44:52.867Z,31.48
2019-06-20T10:47:33.575Z,31.56
2019-06-20T10:49:56.360Z,30.25
2019-06-20T10:52:27.481Z,31.26
2019-06-20T10:54:58.191Z,32.25
2019-06-20T10:57:29.053Z,32.64
2019-06-20T10:59:59.716Z,31.14
2019-06-20T11:02:30.367Z,32.14
2019-06-20T11:05:01.067Z,32.81
2019-06-20T11:07:33.202Z,33.22
2019-06-20T11:10:09.862Z,32.92
2019-06-20T11:12:47.853Z,33.13
2019-06-20T11:15:15.989Z,31.67
2019-06-20T11:17:48.330Z,30.38
2019-06-20T11:20:25.819Z,30.40
2019-06-20T11:22:57.217Z,30.40
2019-06-20T11:25:30.057Z,30.98
2019-06-20T11:28:00.874Z,31.63
2019-06-20T11:30:47.942Z,32.02
2019-06-20T11:33:07.544Z,31.36
2019-06-20T11:35:39.280Z,31.82
2019-06-20T11:38:10.269Z,30.93
2019-06-20T11:40:41.633Z,30.98
2019-06-20T11:43:12.913Z,30.20
2019-06-20T11:45:44.115Z,30.90
2019-06-20T11:48:15.126Z,31.59
2019-06-20T11:50:46.664Z,31.86
2019-06-20T11:53:17.712Z,30.65
2019-06-20T11:55:48.869Z,29.59
2019-06-20T11:58:19.711Z,30.19
2019-06-20T12:01:03.121Z,30.27
2019-06-20T12:03:23.711Z,29.54
2019-06-20T12:05:54.676Z,29.21
2019-06-20T12:08:25.667Z,29.38
2019-06-20T12:10:56.428Z,29.00
2019-06-20T12:13:29.275Z,28.68
2019-06-20T12:16:00.532Z,28.23
2019-06-20T12:18:31.581Z,27.80
2019-06-20T12:21:02.696Z,27.77
2019-06-20T12:23:33.788Z,27.60
2019-06-20T12:26:06.211Z,27.18
2019-06-20T12:28:39.002Z,27.10
2019-06-20T12:31:18.900Z,27.06
2019-06-20T12:33:42.516Z,27.09
2019-06-20T12:36:14.366Z,26.97
2019-06-20T12:38:46.275Z,26.72
2019-06-20T12:41:17.169Z,26.72
2019-06-20T12:43:48.327Z,26.54
2019-06-20T12:46:19.669Z,26.32
2019-06-20T12:48:50.340Z,26.38
2019-06-20T12:51:21.295Z,26.05
2019-06-20T12:53:51.947Z,25.91
2019-06-20T12:56:22.621Z,25.92
2019-06-20T12:58:54.050Z,25.85
2019-06-20T13:01:35.584Z,25.99
2019-06-20T13:03:58.726Z,25.95
2019-06-20T13:06:30.630Z,26.02
2019-06-20T13:09:01.925Z,25.87
2019-06-20T13:11:34.588Z,25.82
2019-06-20T13:14:05.270Z,25.77
2019-06-20T13:16:36.156Z,25.82
2019-06-20T13:19:10.976Z,25.95
2019-06-20T13:21:42.056Z,25.77
2019-06-20T13:24:13.100Z,25.85
2019-06-20T13:26:44.215Z,25.91
2019-06-20T13:29:15.174Z,26.00
2019-06-20T13:32:00.595Z,26.05
2019-06-20T13:34:18.756Z,25.89
2019-06-20T13:36:49.990Z,25.73
2019-06-20T13:39:21.233Z,25.69
2019-06-20T13:41:52.239Z,25.83
2019-06-20T13:44:23.910Z,25.58
2019-06-20T13:46:54.747Z,25.55
2019-06-20T13:49:25.849Z,25.37
2019-06-20T13:51:56.520Z,25.33
2019-06-20T13:54:27.452Z,24.81
2019-06-20T13:56:58.447Z,24.78
2019-06-20T13:59:29.265Z,24.70
2019-06-20T14:02:06.535Z,24.96
2019-06-20T14:04:33.596Z,25.39
2019-06-20T14:07:04.351Z,25.49
2019-06-20T14:09:35.406Z,25.64
2019-06-20T14:12:08.033Z,25.94
2019-06-20T14:14:39.219Z,25.96
2019-06-20T14:17:11.177Z,25.79
2019-06-20T14:19:43.735Z,25.90
2019-06-20T14:22:15.286Z,25.84
2019-06-20T14:24:45.991Z,25.87
2019-06-20T14:27:16.713Z,25.80
2019-06-20T14:29:49.137Z,25.69
2019-06-20T14:32:22.382Z,25.57
2019-06-20T14:34:52.416Z,25.38
2019-06-20T14:37:23.145Z,25.46
2019-06-20T14:39:55.018Z,25.68
2019-06-20T14:42:26.110Z,25.86
2019-06-20T14:44:57.254Z,25.70
2019-06-20T14:47:28.260Z,25.55
2019-06-20T14:49:59.235Z,25.93
2019-06-20T14:52:30.518Z,26.14
2019-06-20T14:55:01.616Z,26.45
2019-06-20T14:57:32.316Z,26.67
2019-06-20T15:00:03.173Z,26.52
2019-06-20T15:02:38.705Z,26.26
2019-06-20T15:05:17.305Z,26.08
2019-06-20T15:07:49.566Z,26.39
2019-06-20T15:10:20.736Z,26.51
2019-06-20T15:12:52.331Z,26.65
2019-06-20T15:15:24.211Z,26.73
2019-06-20T15:17:57.664Z,26.89
2019-06-20T15:20:27.866Z,26.92
2019-06-20T15:22:58.645Z,26.89
2019-06-20T15:25:30.125Z,26.78
2019-06-20T15:28:01.628Z,26.76
2019-06-20T15:30:32.323Z,26.87
2019-06-20T15:33:09.990Z,26.86
2019-06-20T15:35:35.396Z,27.08
2019-06-20T15:38:06.500Z,27.02
2019-06-20T15:40:40.225Z,26.97
2019-06-20T15:43:11.985Z,27.08
2019-06-20T15:45:44.812Z,26.77
2019-06-20T15:48:17.537Z,26.87
2019-06-20T15:50:48.471Z,26.73
2019-06-20T15:53:19.261Z,26.78
2019-06-20T15:55:50.431Z,26.59
2019-06-20T15:58:21.163Z,26.67
2019-06-20T16:00:51.860Z,26.66
2019-06-20T16:03:23.021Z,26.70
2019-06-20T16:05:53.843Z,26.90
2019-06-20T16:08:25.940Z,26.92
2019-06-20T16:10:56.904Z,26.72
2019-06-20T16:13:27.932Z,26.42
2019-06-20T16:15:58.898Z,26.47
2019-06-20T16:18:29.845Z,26.49
2019-06-20T16:21:00.813Z,26.68
2019-06-20T16:23:32.580Z,26.73
2019-06-20T16:26:03.223Z,26.76
2019-06-20T16:28:33.915Z,26.97
2019-06-20T16:31:08.694Z,27.03
2019-06-20T16:33:37.297Z,26.73
2019-06-20T16:36:08.222Z,26.64
2019-06-20T16:38:39.242Z,26.59
2019-06-20T16:41:10.051Z,26.78
2019-06-20T16:43:41.160Z,26.72
2019-06-20T16:46:11.878Z,26.84
2019-06-20T16:48:42.576Z,26.98
2019-06-20T16:51:13.599Z,27.02
2019-06-20T16:53:44.282Z,27.02
2019-06-20T16:56:15.327Z,26.81
2019-06-20T16:58:46.008Z,26.84
2019-06-20T17:01:16.942Z,26.92
2019-06-20T17:03:47.901Z,26.97
2019-06-20T17:06:18.913Z,27.14
2019-06-20T17:08:50.997Z,27.09
2019-06-20T17:11:21.981Z,27.14
2019-06-20T17:13:52.942Z,27.04
2019-06-20T17:16:23.914Z,27.09
2019-06-20T17:18:55.000Z,27.06
2019-06-20T17:21:25.772Z,27.19
2019-06-20T17:23:57.402Z,27.20
2019-06-20T17:26:28.465Z,27.10
2019-06-20T17:28:59.781Z,27.04
2019-06-20T17:31:31.412Z,26.73
2019-06-20T17:34:02.223Z,26.65
2019-06-20T17:36:32.911Z,26.68
2019-06-20T17:39:04.997Z,26.65
2019-06-20T17:41:37.402Z,26.65
2019-06-20T17:44:08.688Z,26.60
2019-06-20T17:46:39.355Z,26.58
2019-06-20T17:49:10.482Z,26.44
2019-06-20T17:51:42.153Z,26.37
2019-06-20T17:54:13.275Z,26.27
2019-06-20T17:56:44.363Z,26.25
2019-06-20T17:59:15.101Z,26.11
2019-06-20T18:01:46.297Z,26.03
2019-06-20T18:04:17.226Z,25.98
2019-06-20T18:06:48.205Z,26.00
2019-06-20T18:09:18.873Z,25.93
2019-06-20T18:11:50.092Z,25.92
2019-06-20T18:14:21.106Z,25.87
2019-06-20T18:16:52.252Z,25.90
2019-06-20T18:19:22.945Z,25.91
2019-06-20T18:21:53.640Z,25.91
2019-06-20T18:24:24.592Z,25.94
2019-06-20T18:26:55.557Z,25.74
2019-06-20T18:29:26.254Z,25.73
2019-06-20T18:31:57.251Z,25.80
2019-06-20T18:34:30.327Z,25.90
2019-06-20T18:37:00.422Z,25.80
2019-06-20T18:39:31.734Z,25.76
2019-06-20T18:42:02.883Z,25.80
2019-06-20T18:44:34.106Z,25.71
2019-06-20T18:47:05.167Z,25.64
2019-06-20T18:49:35.831Z,25.57
2019-06-20T18:52:06.645Z,25.50
2019-06-20T18:54:37.575Z,25.44
2019-06-20T18:57:08.304Z,25.40
2019-06-20T19:02:14.211Z,25.30
2019-06-20T19:04:50.449Z,25.16
2019-06-20T19:07:17.974Z,25.11
2019-06-20T19:09:48.982Z,25.04
2019-06-20T19:12:19.915Z,24.90
2019-06-20T19:14:50.929Z,24.86
2019-06-20T19:17:21.882Z,24.69
2019-06-20T19:19:52.818Z,24.68
2019-06-20T19:22:23.584Z,24.65
2019-06-20T19:24:54.272Z,24.73
2019-06-20T19:27:25.065Z,24.60
2019-06-20T19:29:56.265Z,24.56
2019-06-20T19:32:27.432Z,24.50
2019-06-20T19:35:02.481Z,24.49
2019-06-20T19:37:31.089Z,24.52
2019-06-20T19:40:01.992Z,24.47
2019-06-20T19:42:34.091Z,24.39
2019-06-20T19:45:12.839Z,24.34
2019-06-20T19:47:44.139Z,24.37
2019-06-20T19:50:15.592Z,24.45
2019-06-20T19:52:46.369Z,24.28
2019-06-20T19:55:17.848Z,24.20
2019-06-20T19:57:48.971Z,24.24
2019-06-20T20:00:21.707Z,24.08
2019-06-20T20:02:53.723Z,24.12
2019-06-20T20:05:25.067Z,24.07
2019-06-20T20:07:56.203Z,24.04
2019-06-20T20:10:40.017Z,24.06
2019-06-20T20:13:14.490Z,23.97
2019-06-20T20:15:45.782Z,23.88
2019-06-20T20:18:18.525Z,23.85
2019-06-20T20:20:50.204Z,23.70
2019-06-20T20:23:20.893Z,23.64
2019-06-20T20:25:52.037Z,23.65
2019-06-20T20:28:23.048Z,23.73
2019-06-20T20:30:54.554Z,23.68
2019-06-20T20:33:25.662Z,23.61
2019-06-20T20:35:57.366Z,23.57
2019-06-20T20:38:28.457Z,23.50
2019-06-20T20:40:59.413Z,23.56
2019-06-20T20:43:30.404Z,23.56
2019-06-20T20:46:01.429Z,23.53
2019-06-20T20:48:32.783Z,23.20
2019-06-20T20:51:03.624Z,22.62
2019-06-20T20:53:34.730Z,22.28
2019-06-20T20:56:05.451Z,21.42
2019-06-20T20:58:36.405Z,20.89
2019-06-20T21:01:14.355Z,20.61
2019-06-20T21:03:45.308Z,20.27
2019-06-20T21:06:16.335Z,19.78
2019-06-20T21:08:47.258Z,19.75
2019-06-20T21:11:18.235Z,19.66
2019-06-20T21:13:49.223Z,19.56
2019-06-20T21:16:19.947Z,19.53
2019-06-20T21:18:50.680Z,19.65
2019-06-20T21:21:22.122Z,19.69
2019-06-20T21:23:52.933Z,19.50
2019-06-20T21:26:24.036Z,19.54
2019-06-20T21:28:54.785Z,19.57
2019-06-20T21:31:25.873Z,19.47
2019-06-20T21:33:56.938Z,19.57
2019-06-20T21:36:27.719Z,19.61
2019-06-20T21:38:58.735Z,19.54
2019-06-20T21:41:29.791Z,19.64
2019-06-20T21:44:00.883Z,19.54
2019-06-20T21:46:31.878Z,19.50
2019-06-20T21:49:02.901Z,19.53
2019-06-20T21:51:33.573Z,19.66
2019-06-20T21:54:04.952Z,19.59
2019-06-20T21:56:35.965Z,19.42
2019-06-20T21:59:06.983Z,19.44
2019-06-20T22:01:39.106Z,19.30
2019-06-20T22:04:09.768Z,19.33
2019-06-20T22:06:40.953Z,19.37
2019-06-20T22:09:11.891Z,19.42
2019-06-20T22:11:43.746Z,19.39
2019-06-20T22:14:14.732Z,19.38
2019-06-20T22:16:45.766Z,19.28
2019-06-20T22:19:16.828Z,19.35
2019-06-20T22:21:47.657Z,19.29
2019-06-20T22:24:18.716Z,19.28
2019-06-20T22:26:49.647Z,19.32
2019-06-20T22:29:21.628Z,19.37
2019-06-20T22:31:52.672Z,19.40
2019-06-20T22:34:23.420Z,19.39
2019-06-20T22:36:54.129Z,19.34
2019-06-20T22:39:25.027Z,19.30
2019-06-20T22:41:55.792Z,19.23
2019-06-20T22:44:26.756Z,19.21
2019-06-20T22:46:57.503Z,19.19
2019-06-20T22:49:28.623Z,19.25
2019-06-20T22:51:59.571Z,19.28
2019-06-20T22:54:30.898Z,19.34
2019-06-20T22:57:01.621Z,19.37
2019-06-20T22:59:32.690Z,19.31
2019-06-20T23:02:06.608Z,19.36
2019-06-20T23:04:37.257Z,19.29
2019-06-20T23:07:08.273Z,19.30
2019-06-20T23:09:39.277Z,19.23
2019-06-20T23:12:09.992Z,19.20
2019-06-20T23:14:40.954Z,19.15
2019-06-20T23:17:11.636Z,19.15
2019-06-20T23:19:42.326Z,18.99
2019-06-20T23:22:13.290Z,19.06
2019-06-20T23:24:44.400Z,18.98
2019-06-20T23:27:15.328Z,18.99
2019-06-20T23:29:46.307Z,19.03
2019-06-20T23:32:16.979Z,18.94
2019-06-20T23:34:47.993Z,18.92
2019-06-20T23:37:18.973Z,18.91
2019-06-20T23:39:50.301Z,18.61
2019-06-20T23:42:21.266Z,18.96
2019-06-20T23:44:51.944Z,19.05
2019-06-20T23:47:22.916Z,19.06
2019-06-20T23:49:53.616Z,19.08
2019-06-20T23:52:26.294Z,19.12
2019-06-20T23:54:57.278Z,19.04
2019-06-20T23:57:28.259Z,19.04
2019-06-20T23:59:59.191Z,19.03
